Time;durP1;ratioP1;P1;durP2;ratioP2;P2;SDS_P1;SDS_P2;PMS_P1;PMS_P2;Temp;Humidity;BMP_temperature;BMP_pressure;BME280_temperature;BME280_humidity;BME280_pressure;Samples;Min_cycle;Max_cycle;Signal;HPM_P1;HPM_P2
2022/09/04 00:02:33;;;;;;;3.73;1.60;;;14.20;99.90;;;;;;4993134;28;20453;-67
2022/09/04 00:05:18;;;;;;;3.20;1.50;;;14.20;99.90;;;;;;4991099;28;20465;-66
2022/09/04 00:08:12;;;;;;;3.80;1.43;;;14.20;99.90;;;;;;5000455;28;20466;-67
2022/09/04 00:10:48;;;;;;;6.50;1.63;;;14.10;99.90;;;;;;5000526;28;20425;-67
2022/09/04 00:13:38;;;;;;;3.43;1.83;;;14.10;99.90;;;;;;4990870;28;20454;-67
2022/09/04 00:16:18;;;;;;;16.50;1.40;;;14.00;99.90;;;;;;5007253;28;20420;-67
2022/09/04 00:19:06;;;;;;;10.33;1.90;;;14.00;99.90;;;;;;4995013;28;20436;-67
2022/09/04 00:21:47;;;;;;;2.73;1.47;;;13.90;99.90;;;;;;4997022;28;20438;-67
2022/09/04 00:24:15;;;;;;;4.90;1.83;;;14.00;99.90;;;;;;5006064;28;20454;-67
2022/09/04 00:27:05;;;;;;;1.87;1.10;;;14.00;99.90;;;;;;5003350;28;20519;-67
2022/09/04 00:29:55;;;;;;;4.63;2.23;;;13.90;99.90;;;;;;4993134;28;20461;-67
2022/09/04 00:32:44;;;;;;;2.73;1.20;;;13.90;99.90;;;;;;4973842;28;20415;-67
2022/09/04 00:35:10;;;;;;;2.30;1.17;;;13.90;99.90;;;;;;4997848;28;20545;-67
2022/09/04 00:37:44;;;;;;;2.30;1.07;;;13.80;99.90;;;;;;5010538;28;20873;-67
2022/09/04 00:40:42;;;;;;;2.97;1.70;;;13.80;99.90;;;;;;4997538;28;20184;-67
2022/09/04 00:43:40;;;;;;;3.20;1.60;;;13.80;99.90;;;;;;4990977;28;20505;-67
2022/09/04 00:46:38;;;;;;;3.10;1.63;;;13.80;99.90;;;;;;5003532;28;20426;-67
2022/09/04 00:49:06;;;;;;;3.13;1.70;;;13.80;99.90;;;;;;4987508;28;20415;-67
2022/09/04 00:51:54;;;;;;;2.40;1.23;;;13.80;99.90;;;;;;4996463;28;20423;-67
2022/09/04 00:54:23;;;;;;;4.80;1.67;;;13.70;99.90;;;;;;5011977;28;20473;-67
2022/09/04 00:56:54;;;;;;;2.83;1.57;;;13.70;99.90;;;;;;5001175;28;20425;-66
2022/09/04 00:59:31;;;;;;;3.23;1.80;;;13.70;99.90;;;;;;5007055;28;21166;-65
2022/09/04 01:02:07;;;;;;;2.60;1.43;;;13.70;99.90;;;;;;4994365;28;20891;-66
2022/09/04 01:04:42;;;;;;;3.70;2.27;;;13.70;99.90;;;;;;5009965;28;20419;-66
2022/09/04 01:07:14;;;;;;;5.20;1.83;;;13.70;99.90;;;;;;4995272;28;20426;-66
2022/09/04 01:09:54;;;;;;;2.53;1.40;;;13.70;99.90;;;;;;5005466;28;20515;-66
2022/09/04 01:12:46;;;;;;;3.67;1.17;;;13.70;99.90;;;;;;5018318;28;20489;-66
2022/09/04 01:15:15;;;;;;;4.53;1.70;;;13.60;99.90;;;;;;4990192;28;20477;-66
2022/09/04 01:17:50;;;;;;;5.67;1.40;;;13.60;99.90;;;;;;4998394;28;20472;-66
2022/09/04 01:20:25;;;;;;;15.20;1.80;;;13.60;99.90;;;;;;5011834;28;20418;-65
2022/09/04 01:22:57;;;;;;;3.20;1.47;;;13.60;99.90;;;;;;4999884;28;20432;-68
2022/09/04 01:25:56;;;;;;;2.90;1.80;;;13.60;99.90;;;;;;5001322;28;20427;-67
2022/09/04 01:28:49;;;;;;;3.27;2.00;;;13.60;99.90;;;;;;4992718;28;20549;-67
2022/09/04 01:31:30;;;;;;;3.73;1.83;;;13.60;99.90;;;;;;5001203;28;20422;-67
2022/09/04 01:34:20;;;;;;;3.80;1.80;;;13.60;99.90;;;;;;5009470;28;20473;-68
2022/09/04 01:36:58;;;;;;;2.70;1.40;;;13.60;99.90;;;;;;4999462;28;20419;-67
2022/09/04 01:39:27;;;;;;;2.93;1.93;;;13.60;99.90;;;;;;5006714;28;20425;-67
2022/09/04 01:42:05;;;;;;;22.00;2.40;;;13.60;99.90;;;;;;5009615;28;20564;-67
2022/09/04 01:44:32;;;;;;;3.43;1.70;;;13.50;99.90;;;;;;4994832;28;20510;-67
2022/09/04 01:47:22;;;;;;;3.57;1.93;;;13.50;99.90;;;;;;4997960;28;20449;-68
2022/09/04 01:49:50;;;;;;;3.60;1.90;;;13.50;99.90;;;;;;5007659;28;20422;-66
2022/09/04 01:52:37;;;;;;;2.70;1.80;;;13.50;99.90;;;;;;4996351;28;20483;-66
2022/09/04 01:55:22;;;;;;;3.60;1.50;;;13.50;99.90;;;;;;5005023;28;20538;-65
2022/09/04 01:58:03;;;;;;;3.43;1.30;;;13.50;99.90;;;;;;4993517;28;20411;-66
2022/09/04 02:00:36;;;;;;;5.03;1.90;;;13.50;99.90;;;;;;5004866;28;20417;-66
2022/09/04 02:03:16;;;;;;;5.90;2.60;;;13.50;99.90;;;;;;4996618;28;20426;-65
2022/09/04 02:06:00;;;;;;;5.00;1.70;;;13.50;99.90;;;;;;4988184;28;20464;-66
2022/09/04 02:08:32;;;;;;;3.27;1.80;;;13.40;99.90;;;;;;4997813;28;20407;-65
2022/09/04 02:11:09;;;;;;;3.17;1.83;;;13.40;99.90;;;;;;4994143;28;20427;-66
2022/09/04 02:13:46;;;;;;;2.80;1.63;;;13.40;99.90;;;;;;5002959;28;20473;-65
2022/09/04 02:16:35;;;;;;;4.33;1.90;;;13.30;99.90;;;;;;4995522;28;20460;-66
2022/09/04 02:19:20;;;;;;;5.87;1.63;;;13.30;99.90;;;;;;4994499;28;20518;-66
2022/09/04 02:22:00;;;;;;;4.23;2.00;;;13.30;99.90;;;;;;5008829;28;20468;-66
2022/09/04 02:25:02;;;;;;;4.87;1.70;;;13.20;99.90;;;;;;5003418;28;20460;-65
2022/09/04 02:27:40;;;;;;;3.20;1.70;;;13.20;99.90;;;;;;4994532;28;20453;-66
2022/09/04 02:30:11;;;;;;;3.30;1.87;;;13.20;99.90;;;;;;4993021;28;20797;-66
2022/09/04 02:32:45;;;;;;;4.17;1.90;;;13.10;99.90;;;;;;5006335;28;20740;-66
2022/09/04 02:35:19;;;;;;;6.07;2.20;;;13.20;99.90;;;;;;5008312;28;20469;-66
2022/09/04 02:37:49;;;;;;;3.93;1.53;;;13.10;99.90;;;;;;4992510;28;20941;-66
2022/09/04 02:40:50;;;;;;;2.33;1.27;;;13.10;99.90;;;;;;4999386;28;20411;-65
2022/09/04 02:43:48;;;;;;;3.63;1.50;;;13.10;99.90;;;;;;4993193;28;20411;-65
2022/09/04 02:46:59;;;;;;;3.10;1.50;;;13.00;99.90;;;;;;4984110;28;20526;-66
2022/09/04 02:49:38;;;;;;;3.07;1.90;;;13.00;99.90;;;;;;4993786;28;20429;-65
2022/09/04 02:52:32;;;;;;;3.73;1.57;;;13.00;99.90;;;;;;4996743;28;20426;-65
2022/09/04 02:55:22;;;;;;;3.87;2.30;;;13.00;99.90;;;;;;4995306;28;20802;-65
2022/09/04 02:58:15;;;;;;;2.63;1.60;;;12.90;99.90;;;;;;5004512;28;20418;-66
2022/09/04 03:00:58;;;;;;;2.47;1.70;;;12.90;99.90;;;;;;4983052;28;20411;-66
2022/09/04 03:03:28;;;;;;;3.30;1.63;;;12.90;99.90;;;;;;5002902;28;20450;-66
2022/09/04 03:06:12;;;;;;;3.30;1.33;;;12.90;99.90;;;;;;5008035;28;20414;-66
2022/09/04 03:08:48;;;;;;;2.67;1.43;;;12.90;99.90;;;;;;4992531;28;20515;-65
2022/09/04 03:11:35;;;;;;;13.97;2.60;;;12.90;99.90;;;;;;4992109;28;20426;-66
2022/09/04 03:14:03;;;;;;;3.03;1.57;;;12.90;99.90;;;;;;5005086;28;20489;-65
2022/09/04 03:16:37;;;;;;;4.27;2.07;;;12.80;99.90;;;;;;4997267;28;20418;-66
2022/09/04 03:19:17;;;;;;;4.23;1.87;;;12.80;99.90;;;;;;5004833;28;20469;-66
2022/09/04 03:22:01;;;;;;;3.40;1.50;;;12.80;99.90;;;;;;4992346;28;20845;-66
2022/09/04 03:24:48;;;;;;;4.00;2.00;;;12.70;99.90;;;;;;5006256;28;20982;-66
2022/09/04 03:27:15;;;;;;;3.20;1.40;;;12.80;99.90;;;;;;5000217;28;20423;-66
2022/09/04 03:30:10;;;;;;;4.10;1.73;;;12.80;99.90;;;;;;5004497;28;20446;-66
2022/09/04 03:32:47;;;;;;;2.27;1.43;;;12.80;99.90;;;;;;5002892;28;20414;-66
2022/09/04 03:35:19;;;;;;;3.00;1.57;;;12.70;99.90;;;;;;4998792;28;20473;-65
2022/09/04 03:38:22;;;;;;;4.23;1.90;;;12.70;99.90;;;;;;4992491;28;20457;-65
2022/09/04 03:41:17;;;;;;;8.03;1.87;;;12.70;99.90;;;;;;5005133;28;20418;-65
2022/09/04 03:43:59;;;;;;;2.10;1.20;;;12.60;99.90;;;;;;4998484;28;20426;-65
2022/09/04 03:46:55;;;;;;;2.70;1.30;;;12.60;99.90;;;;;;5001587;28;20474;-65
2022/09/04 03:50:00;;;;;;;2.47;1.40;;;12.50;99.90;;;;;;4990237;28;20613;-65
2022/09/04 03:52:31;;;;;;;3.03;1.70;;;12.50;99.90;;;;;;4991727;28;20433;-65
2022/09/04 03:55:03;;;;;;;3.17;1.47;;;12.50;99.90;;;;;;4998781;28;20816;-66
2022/09/04 03:57:55;;;;;;;2.50;1.57;;;12.40;99.90;;;;;;5006550;28;20513;-65
2022/09/04 04:00:21;;;;;;;2.97;1.80;;;12.40;99.90;;;;;;4978922;28;20469;-65
2022/09/04 04:03:16;;;;;;;3.30;1.73;;;12.40;99.90;;;;;;5005272;28;20469;-65
2022/09/04 04:06:10;;;;;;;3.67;1.30;;;12.40;99.90;;;;;;4987051;28;20852;-65
2022/09/04 04:08:55;;;;;;;2.63;1.40;;;12.30;99.90;;;;;;4991529;28;20446;-65
2022/09/04 04:11:41;;;;;;;2.77;1.70;;;12.30;99.90;;;;;;4995974;28;20417;-65
2022/09/04 04:14:37;;;;;;;5.10;2.10;;;12.30;99.90;;;;;;4995321;28;20470;-65
2022/09/04 04:17:08;;;;;;;2.30;1.30;;;12.30;99.90;;;;;;4996457;28;20610;-65
2022/09/04 04:19:41;;;;;;;5.83;2.13;;;12.30;99.90;;;;;;5005581;28;20466;-65
2022/09/04 04:22:12;;;;;;;2.50;1.60;;;12.30;99.90;;;;;;4995297;28;20847;-65
2022/09/04 04:24:47;;;;;;;3.00;1.90;;;12.30;99.90;;;;;;4983600;28;20725;-65
2022/09/04 04:27:51;;;;;;;2.60;1.30;;;12.30;99.90;;;;;;4998775;28;20417;-66
2022/09/04 04:30:18;;;;;;;3.53;1.53;;;12.30;99.90;;;;;;4989619;28;20946;-66
2022/09/04 04:33:19;;;;;;;2.93;1.20;;;12.30;99.90;;;;;;5012708;28;20937;-66
2022/09/04 04:36:04;;;;;;;2.73;1.70;;;12.30;99.90;;;;;;5002315;28;20428;-65
2022/09/04 04:38:46;;;;;;;2.10;1.30;;;12.30;99.90;;;;;;5009644;28;20784;-65
2022/09/04 04:41:21;;;;;;;2.93;1.67;;;12.30;99.90;;;;;;4995176;28;20422;-65
2022/09/04 04:43:55;;;;;;;14.10;2.57;;;12.20;99.90;;;;;;4997184;28;20422;-65
2022/09/04 04:46:38;;;;;;;4.70;1.87;;;12.20;99.90;;;;;;4995727;28;21116;-65
2022/09/04 04:49:15;;;;;;;3.67;1.67;;;12.10;99.90;;;;;;4994350;28;20416;-65
2022/09/04 04:51:50;;;;;;;3.33;1.83;;;12.10;99.90;;;;;;5005191;28;20445;-65
2022/09/04 04:54:42;;;;;;;3.77;1.90;;;12.20;99.90;;;;;;5001411;28;21017;-65
2022/09/04 04:57:29;;;;;;;4.30;1.30;;;12.10;99.90;;;;;;4989922;28;20416;-65
2022/09/04 05:00:04;;;;;;;3.30;1.70;;;12.20;99.90;;;;;;4993055;28;20426;-66
2022/09/04 05:02:54;;;;;;;3.03;1.73;;;12.20;99.90;;;;;;4994721;28;20925;-66
2022/09/04 05:05:45;;;;;;;2.73;1.60;;;12.20;99.90;;;;;;4996696;28;20414;-65
2022/09/04 05:08:42;;;;;;;3.00;1.67;;;12.20;99.90;;;;;;5001924;28;20414;-65
2022/09/04 05:11:30;;;;;;;2.90;1.50;;;12.20;99.90;;;;;;5004268;28;20934;-66
2022/09/04 05:14:05;;;;;;;2.30;1.30;;;12.10;99.90;;;;;;5005545;28;20477;-65
2022/09/04 05:16:47;;;;;;;11.43;2.43;;;12.20;99.90;;;;;;4998303;28;20426;-65
2022/09/04 05:19:46;;;;;;;4.07;1.97;;;12.20;99.90;;;;;;4998119;28;20411;-66
2022/09/04 05:22:29;;;;;;;3.27;1.93;;;12.30;99.90;;;;;;4996887;28;20995;-65
2022/09/04 05:25:06;;;;;;;3.20;1.73;;;12.30;99.90;;;;;;4992388;28;20926;-65
2022/09/04 05:27:51;;;;;;;4.17;2.33;;;12.30;99.90;;;;;;4998934;28;20413;-65
2022/09/04 05:30:21;;;;;;;2.67;1.73;;;12.30;99.90;;;;;;4990298;28;20442;-67
2022/09/04 05:33:07;;;;;;;3.50;1.80;;;12.30;99.90;;;;;;5009796;28;20425;-66
2022/09/04 05:36:05;;;;;;;3.97;2.03;;;12.40;99.90;;;;;;5010430;28;20488;-66
2022/09/04 05:39:07;;;;;;;3.47;2.10;;;12.30;99.90;;;;;;4994788;28;20403;-66
2022/09/04 05:41:38;;;;;;;7.33;1.70;;;12.40;99.90;;;;;;5005345;28;20409;-67
2022/09/04 05:44:32;;;;;;;4.53;2.20;;;12.50;99.90;;;;;;5001186;28;21112;-67
2022/09/04 05:47:16;;;;;;;3.97;2.20;;;12.50;99.90;;;;;;5000999;28;20896;-66
2022/09/04 05:49:51;;;;;;;2.50;1.60;;;12.60;99.90;;;;;;4996366;28;20986;-66
2022/09/04 05:52:39;;;;;;;2.83;1.43;;;12.60;99.90;;;;;;4981387;28;20431;-67
2022/09/04 05:55:30;;;;;;;5.53;2.70;;;12.70;99.90;;;;;;5002793;28;20472;-66
2022/09/04 05:58:17;;;;;;;3.97;1.77;;;12.70;99.90;;;;;;4997809;28;20422;-66
2022/09/04 06:01:37;;;;;;;3.80;2.77;;;12.80;99.90;;;;;;4998817;28;20512;-67
2022/09/04 06:04:30;;;;;;;3.57;1.97;;;12.90;99.90;;;;;;5011329;28;20946;-66
2022/09/04 06:07:01;;;;;;;14.13;1.77;;;13.00;99.90;;;;;;4991003;28;20407;-66
2022/09/04 06:09:51;;;;;;;24.67;2.50;;;13.10;99.90;;;;;;4995202;28;20759;-66
2022/09/04 06:12:38;;;;;;;4.63;2.60;;;13.20;99.90;;;;;;4984332;28;20922;-67
2022/09/04 06:15:19;;;;;;;5.20;2.80;;;13.30;99.90;;;;;;4998242;28;20461;-66
2022/09/04 06:18:21;;;;;;;3.90;2.27;;;13.40;99.90;;;;;;5000094;28;20423;-66
2022/09/04 06:21:08;;;;;;;7.83;2.37;;;13.50;99.90;;;;;;5000312;28;20510;-67
2022/09/04 06:23:55;;;;;;;3.53;1.90;;;13.60;99.90;;;;;;5008493;28;20480;-67
2022/09/04 06:26:56;;;;;;;3.90;2.40;;;13.70;99.90;;;;;;5006677;28;20415;-67
2022/09/04 06:29:24;;;;;;;4.97;2.47;;;13.80;99.90;;;;;;5004318;28;20917;-67
2022/09/04 06:32:06;;;;;;;4.30;2.03;;;13.90;99.90;;;;;;4999040;28;20414;-66
2022/09/04 06:34:37;;;;;;;4.80;2.50;;;14.00;99.90;;;;;;4980678;28;20490;-67
2022/09/04 06:37:21;;;;;;;5.57;2.43;;;14.20;99.90;;;;;;4998627;28;20643;-67
2022/09/04 06:40:09;;;;;;;3.20;2.30;;;14.40;99.90;;;;;;4983787;28;20461;-68
2022/09/04 06:42:51;;;;;;;3.63;2.40;;;14.50;99.90;;;;;;4991553;28;20535;-68
2022/09/04 06:45:45;;;;;;;3.70;1.90;;;14.70;99.90;;;;;;5006627;28;20425;-68
2022/09/04 06:48:52;;;;;;;4.60;3.00;;;14.90;99.90;;;;;;4989287;28;20418;-68
2022/09/04 06:51:17;;;;;;;2.37;1.47;;;15.00;99.90;;;;;;5005848;28;20949;-68
2022/09/04 06:54:09;;;;;;;4.00;2.13;;;15.30;99.90;;;;;;4996163;28;20482;-68
2022/09/04 06:56:54;;;;;;;2.70;1.80;;;15.40;99.90;;;;;;5001917;28;20562;-67
2022/09/04 06:59:28;;;;;;;5.27;2.23;;;15.60;99.90;;;;;;5001037;28;20759;-68
2022/09/04 07:02:12;;;;;;;3.90;2.60;;;15.80;99.90;;;;;;4997979;28;20457;-67
2022/09/04 07:05:08;;;;;;;3.80;1.97;;;16.10;99.90;;;;;;4993326;28;20418;-67
2022/09/04 07:07:58;;;;;;;5.53;2.43;;;16.30;99.90;;;;;;5006037;28;21203;-68
2022/09/04 07:11:10;;;;;;;3.80;2.40;;;16.60;99.90;;;;;;4996405;28;20925;-68
2022/09/04 07:13:36;;;;;;;4.10;2.10;;;17.10;99.90;;;;;;4961038;28;20431;-68
2022/09/04 07:16:13;;;;;;;2.63;1.70;;;17.70;99.90;;;;;;4995491;28;20476;-67
2022/09/04 07:18:57;;;;;;;5.20;2.00;;;18.20;99.90;;;;;;5007196;28;20209;-68
2022/09/04 07:21:42;;;;;;;3.03;1.63;;;18.70;99.90;;;;;;5005405;28;20416;-68
2022/09/04 07:24:59;;;;;;;2.93;1.43;;;19.20;99.90;;;;;;5003273;28;20531;-68
2022/09/04 07:27:54;;;;;;;3.43;1.60;;;20.70;99.90;;;;;;4955851;28;21306;-68
2022/09/04 07:30:24;;;;;;;6.07;1.20;;;22.10;99.90;;;;;;4993086;28;20422;-68
2022/09/04 07:32:56;;;;;;;3.13;1.57;;;23.30;99.90;;;;;;5009401;28;20910;-68
2022/09/04 07:35:37;;;;;;;1.80;1.10;;;24.60;99.80;;;;;;4996233;28;20946;-68
2022/09/04 07:38:26;;;;;;;3.00;1.30;;;24.90;97.40;;;;;;4993249;28;20186;-69
2022/09/04 07:40:58;;;;;;;2.00;1.00;;;25.30;95.50;;;;;;4996466;28;20297;-71
2022/09/04 07:43:30;;;;;;;3.20;1.00;;;25.90;94.50;;;;;;4992739;28;20745;-70
2022/09/04 07:46:05;;;;;;;3.73;1.00;;;26.00;94.10;;;;;;4993096;28;20236;-67
2022/09/04 07:49:08;;;;;;;3.63;1.53;;;26.30;92.00;;;;;;5001043;28;20174;-69
2022/09/04 07:51:52;;;;;;;2.30;0.90;;;25.60;93.70;;;;;;5002651;28;20184;-69
2022/09/04 07:54:58;;;;;;;1.83;0.77;;;25.30;92.90;;;;;;4991589;28;20252;-69
2022/09/04 07:57:24;;;;;;;1.80;0.80;;;25.30;93.50;;;;;;4991553;28;20186;-69
2022/09/04 07:59:52;;;;;;;2.00;1.00;;;25.40;93.00;;;;;;4994940;28;20183;-69
2022/09/04 08:02:48;;;;;;;2.37;1.23;;;25.60;92.70;;;;;;4989542;28;20259;-69
2022/09/04 08:05:33;;;;;;;2.60;1.30;;;26.10;92.00;;;;;;4994588;28;20643;-68
2022/09/04 08:08:09;;;;;;;2.78;1.52;;;26.00;92.40;;;;;;4992087;28;20183;-69
2022/09/04 08:11:12;;;;;;;1.67;0.80;;;25.40;93.40;;;;;;5002664;28;20208;-70
2022/09/04 08:14:21;;;;;;;1.92;0.77;;;25.80;92.70;;;;;;4991342;28;20186;-69
2022/09/04 08:17:32;;;;;;;2.15;0.88;;;26.20;91.60;;;;;;4990244;28;20665;-69
2022/09/04 08:20:18;;;;;;;2.45;1.10;;;26.10;91.60;;;;;;4981780;28;20180;-69
2022/09/04 08:23:05;;;;;;;1.92;0.93;;;25.30;92.90;;;;;;4996473;28;20222;-69
2022/09/04 08:25:45;;;;;;;1.52;0.75;;;25.30;93.00;;;;;;4993426;28;20192;-69
2022/09/04 08:28:23;;;;;;;1.80;0.77;;;25.70;91.90;;;;;;4997337;28;20261;-69
2022/09/04 08:31:27;;;;;;;2.78;1.05;;;25.90;91.80;;;;;;4994291;28;20217;-70
2022/09/04 08:34:14;;;;;;;2.03;1.00;;;26.20;90.40;;;;;;4990170;28;20218;-69
2022/09/04 08:36:50;;;;;;;2.03;0.80;;;26.30;91.30;;;;;;4995052;28;20892;-70
2022/09/04 08:39:23;;;;;;;2.05;0.75;;;26.80;89.10;;;;;;4990333;28;20174;-69
2022/09/04 08:42:04;;;;;;;3.45;1.15;;;26.30;90.60;;;;;;4996441;28;20215;-68
2022/09/04 08:45:07;;;;;;;2.60;1.20;;;26.00;90.70;;;;;;4993455;28;20187;-68
2022/09/04 08:47:35;;;;;;;1.80;0.80;;;26.10;91.40;;;;;;5000130;28;20269;-69
2022/09/04 08:50:26;;;;;;;1.50;0.70;;;27.10;86.60;;;;;;4997643;28;20245;-70
2022/09/04 08:53:17;;;;;;;4.97;1.30;;;26.80;87.40;;;;;;4991677;28;20246;-70
2022/09/04 08:56:05;;;;;;;3.25;1.05;;;26.30;88.60;;;;;;4998983;28;20206;-69
2022/09/04 08:58:30;;;;;;;4.15;1.35;;;26.00;89.80;;;;;;4995170;28;20257;-70
2022/09/04 09:01:02;;;;;;;2.25;1.00;;;25.60;89.90;;;;;;5001475;28;20267;-71
2022/09/04 09:03:39;;;;;;;2.70;1.35;;;25.80;88.30;;;;;;4993865;28;20242;-70
2022/09/04 09:06:11;;;;;;;1.65;0.75;;;25.50;91.20;;;;;;4987190;28;20632;-70
2022/09/04 09:09:27;;;;;;;2.22;1.00;;;25.60;91.50;;;;;;5003170;28;20185;-70
2022/09/04 09:12:11;;;;;;;2.55;1.20;;;25.90;90.10;;;;;;4973564;28;20214;-70
2022/09/04 09:14:55;;;;;;;1.65;0.75;;;25.80;90.10;;;;;;5008605;28;20211;-70
2022/09/04 09:17:24;;;;;;;1.83;0.82;;;25.60;90.30;;;;;;5001412;28;20186;-70
2022/09/04 09:19:59;;;;;;;2.38;1.25;;;25.60;90.90;;;;;;4995124;28;20183;-70
2022/09/04 09:23:03;;;;;;;2.28;0.90;;;25.70;90.00;;;;;;5007841;28;20198;-70
2022/09/04 09:26:16;;;;;;;1.60;0.70;;;25.70;89.50;;;;;;5002227;28;20213;-70
2022/09/04 09:28:59;;;;;;;3.85;1.35;;;25.40;90.50;;;;;;5008406;28;20751;-69
2022/09/04 09:31:46;;;;;;;1.90;0.60;;;25.60;89.30;;;;;;5004745;28;20202;-69
2022/09/04 09:35:08;;;;;;;2.03;0.90;;;25.90;88.30;;;;;;4992358;28;20206;-69
2022/09/04 09:38:09;;;;;;;2.78;1.10;;;26.30;85.20;;;;;;5002540;28;20184;-70
2022/09/04 09:40:54;;;;;;;2.13;0.90;;;25.40;87.10;;;;;;5004001;28;20646;-69
2022/09/04 09:43:45;;;;;;;1.50;0.63;;;24.70;90.40;;;;;;4998084;28;20191;-69
2022/09/04 09:46:16;;;;;;;2.10;1.10;;;24.10;91.90;;;;;;4995144;28;20679;-69
2022/09/04 09:49:16;;;;;;;2.13;1.03;;;24.00;91.50;;;;;;5010903;28;20711;-69
2022/09/04 09:52:02;;;;;;;7.53;1.00;;;24.20;91.40;;;;;;4992522;28;20663;-69
2022/09/04 09:54:49;;;;;;;2.10;0.80;;;24.30;91.20;;;;;;4989728;28;20667;-69
2022/09/04 09:57:36;;;;;;;3.57;0.90;;;24.10;91.10;;;;;;4997875;28;20217;-69
2022/09/04 10:00:15;;;;;;;2.60;1.00;;;24.40;90.50;;;;;;4996982;28;20414;-70
2022/09/04 10:03:08;;;;;;;2.33;0.90;;;24.40;88.70;;;;;;4998748;28;20483;-69
2022/09/04 10:05:58;;;;;;;3.93;0.80;;;24.60;89.30;;;;;;4984211;28;20910;-69
2022/09/04 10:08:45;;;;;;;2.27;0.80;;;24.50;88.70;;;;;;5008931;28;20452;-68
2022/09/04 10:11:17;;;;;;;1.90;0.90;;;24.00;90.20;;;;;;4993706;28;20450;-67
2022/09/04 10:14:03;;;;;;;2.57;0.97;;;24.20;87.50;;;;;;4997835;28;20417;-68
2022/09/04 10:17:02;;;;;;;2.10;0.90;;;24.10;89.60;;;;;;5000172;28;20492;-67
2022/09/04 10:19:50;;;;;;;3.20;1.20;;;24.20;89.60;;;;;;4995719;28;20538;-68
2022/09/04 10:22:41;;;;;;;1.70;0.90;;;23.90;90.10;;;;;;4992255;28;20500;-68
2022/09/04 10:25:34;;;;;;;2.03;1.13;;;23.50;91.00;;;;;;4991519;28;20427;-70
2022/09/04 10:28:09;;;;;;;1.87;1.03;;;23.60;91.30;;;;;;5000316;28;20464;-69
2022/09/04 10:30:53;;;;;;;2.00;1.00;;;23.90;92.00;;;;;;4993834;28;20430;-69
2022/09/04 10:33:41;;;;;;;2.70;1.00;;;24.20;89.60;;;;;;4988752;28;20415;-69
2022/09/04 10:36:09;;;;;;;1.50;0.70;;;24.30;88.40;;;;;;5003560;28;20789;-68
2022/09/04 10:41:30;;;;;;;1.60;0.70;;;24.50;89.30;;;;;;4988262;28;20843;-69
2022/09/04 10:44:18;;;;;;;2.87;0.97;;;24.70;89.10;;;;;;4992294;28;20442;-69
2022/09/04 10:47:31;;;;;;;2.00;1.00;;;24.80;86.90;;;;;;4983983;28;20223;-69
2022/09/04 10:50:22;;;;;;;1.83;0.80;;;24.60;89.10;;;;;;4987172;28;20460;-68
2022/09/04 10:53:04;;;;;;;2.20;0.90;;;23.80;88.40;;;;;;4993267;28;20461;-69
2022/09/04 10:55:51;;;;;;;2.37;0.80;;;23.40;89.50;;;;;;4991491;28;20943;-69
2022/09/04 10:58:38;;;;;;;3.73;1.23;;;23.10;90.20;;;;;;4998220;28;20940;-69
2022/09/04 11:01:37;;;;;;;1.67;0.80;;;23.40;90.20;;;;;;4992027;28;20427;-68
2022/09/04 11:04:35;;;;;;;2.50;0.97;;;23.40;91.10;;;;;;4990869;28;20434;-68
2022/09/04 11:07:25;;;;;;;11.03;1.37;;;23.50;89.10;;;;;;4992013;28;20477;-69
2022/09/04 11:09:57;;;;;;;1.53;0.73;;;23.40;90.10;;;;;;5001572;28;20421;-69
2022/09/04 11:12:44;;;;;;;2.20;0.80;;;23.30;90.00;;;;;;4992029;28;20427;-69
2022/09/04 11:15:30;;;;;;;1.40;0.60;;;23.20;89.10;;;;;;4994557;28;20509;-69
2022/09/04 11:18:07;;;;;;;2.30;1.13;;;23.20;89.10;;;;;;4992824;28;20543;-69
2022/09/04 11:20:54;;;;;;;2.00;1.10;;;23.30;90.40;;;;;;4999161;28;20502;-69
2022/09/04 11:23:57;;;;;;;2.20;0.93;;;24.00;89.40;;;;;;4990123;28;20410;-69
2022/09/04 11:26:25;;;;;;;4.47;1.40;;;24.00;88.20;;;;;;4992194;28;20988;-69
2022/09/04 11:29:23;;;;;;;2.27;1.27;;;24.00;88.40;;;;;;4996338;28;20883;-69
2022/09/04 11:32:05;;;;;;;1.90;1.07;;;24.00;88.80;;;;;;4994924;28;20418;-69
2022/09/04 11:34:49;;;;;;;10.40;1.73;;;24.50;87.00;;;;;;4991660;28;20545;-69
2022/09/04 11:37:20;;;;;;;1.97;1.10;;;24.80;86.30;;;;;;4992841;28;20421;-68
2022/09/04 11:40:17;;;;;;;2.67;1.03;;;25.00;86.30;;;;;;4996155;28;20422;-69
2022/09/04 11:42:49;;;;;;;2.00;0.93;;;25.60;87.40;;;;;;4990055;28;20946;-69
2022/09/04 11:45:30;;;;;;;1.80;0.70;;;25.90;82.30;;;;;;4995630;28;20975;-69
2022/09/04 11:48:08;;;;;;;2.60;0.87;;;25.90;81.30;;;;;;4992764;28;20502;-69
2022/09/04 11:51:07;;;;;;;1.90;0.87;;;25.50;83.90;;;;;;4992239;28;20426;-69
2022/09/04 11:53:41;;;;;;;1.70;0.73;;;25.20;85.40;;;;;;4987615;28;20489;-69
2022/09/04 11:56:25;;;;;;;9.30;1.13;;;25.00;84.40;;;;;;5000588;28;20937;-69
2022/09/04 11:59:35;;;;;;;2.20;0.60;;;24.50;85.80;;;;;;4988799;28;20433;-68
2022/09/04 12:02:16;;;;;;;1.73;0.70;;;24.10;87.30;;;;;;4984211;28;20912;-68
2022/09/04 12:05:04;;;;;;;1.70;0.73;;;24.00;87.10;;;;;;4988218;28;20449;-68
2022/09/04 12:07:50;;;;;;;1.70;0.97;;;23.70;89.80;;;;;;4991950;28;20469;-69
2022/09/04 12:10:42;;;;;;;1.60;0.80;;;23.50;88.90;;;;;;5002395;28;20929;-67
2022/09/04 12:13:31;;;;;;;2.20;1.07;;;23.40;90.20;;;;;;4990946;28;20441;-68
2022/09/04 12:16:42;;;;;;;2.00;0.97;;;23.70;87.90;;;;;;4994233;28;20458;-68
2022/09/04 12:19:39;;;;;;;1.80;0.90;;;23.40;90.70;;;;;;4994197;28;20426;-68
2022/09/04 12:22:35;;;;;;;1.90;0.80;;;23.60;90.50;;;;;;5006231;28;20422;-69
2022/09/04 12:25:00;;;;;;;1.50;0.60;;;24.20;90.00;;;;;;4987494;28;20426;-69
2022/09/04 12:27:41;;;;;;;1.87;0.80;;;24.70;87.60;;;;;;4991185;28;20517;-69
2022/09/04 12:30:41;;;;;;;2.80;0.90;;;25.00;84.50;;;;;;4994350;28;20226;-69
2022/09/04 12:33:41;;;;;;;1.60;0.70;;;24.90;85.40;;;;;;4987503;28;20426;-70
2022/09/04 12:36:13;;;;;;;2.73;1.00;;;25.30;86.80;;;;;;4989902;28;20417;-70
2022/09/04 12:39:15;;;;;;;3.57;1.30;;;25.60;84.80;;;;;;4990832;28;20411;-70
2022/09/04 12:41:53;;;;;;;6.43;1.40;;;25.40;83.70;;;;;;4999452;28;20798;-70
2022/09/04 12:44:30;;;;;;;1.70;0.80;;;25.70;83.90;;;;;;4995762;28;20837;-71
2022/09/04 12:47:27;;;;;;;2.27;0.90;;;25.60;82.40;;;;;;4996500;28;20930;-70
2022/09/04 12:50:10;;;;;;;1.80;0.70;;;25.50;81.80;;;;;;5002479;28;20931;-70
2022/09/04 12:53:13;;;;;;;2.07;0.90;;;25.70;82.80;;;;;;4999211;28;20920;-69
2022/09/04 12:55:57;;;;;;;1.87;0.80;;;25.80;81.60;;;;;;4993319;28;20202;-69
2022/09/04 12:58:53;;;;;;;2.33;0.93;;;25.90;81.90;;;;;;5002710;28;20421;-70
2022/09/04 13:01:18;;;;;;;2.97;1.30;;;26.00;81.60;;;;;;4999666;28;20644;-71
2022/09/04 13:04:12;;;;;;;2.17;0.90;;;26.40;82.50;;;;;;4998291;28;20229;-70
2022/09/04 13:07:07;;;;;;;1.80;0.67;;;26.40;79.70;;;;;;4995573;28;20187;-71
2022/09/04 13:09:44;;;;;;;1.90;0.70;;;26.10;77.50;;;;;;4995803;28;20541;-70
2022/09/04 13:12:21;;;;;;;2.67;1.30;;;26.60;75.60;;;;;;5004478;28;20225;-71
2022/09/04 13:15:18;;;;;;;2.17;0.70;;;26.50;76.50;;;;;;4999758;28;20253;-69
2022/09/04 13:17:52;;;;;;;3.13;1.13;;;26.50;77.80;;;;;;4995104;28;20179;-71
2022/09/04 13:20:51;;;;;;;1.73;0.73;;;26.60;75.80;;;;;;5012171;28;20252;-70
2022/09/04 13:24:13;;;;;;;2.33;0.80;;;26.40;78.70;;;;;;4999634;28;20195;-70
2022/09/04 13:26:41;;;;;;;2.53;1.40;;;26.40;78.90;;;;;;5002802;28;20593;-70
2022/09/04 13:29:34;;;;;;;4.60;1.00;;;26.70;77.70;;;;;;4994066;28;20184;-69
2022/09/04 13:32:03;;;;;;;2.33;0.90;;;26.60;75.90;;;;;;4989536;28;20195;-70
2022/09/04 13:34:50;;;;;;;3.40;1.03;;;26.20;76.50;;;;;;4996284;28;20668;-69
2022/09/04 13:37:32;;;;;;;2.00;0.80;;;26.10;77.50;;;;;;4992893;28;20183;-70
2022/09/04 13:40:29;;;;;;;1.90;0.90;;;26.10;76.10;;;;;;4998636;28;20193;-70
2022/09/04 13:43:10;;;;;;;1.60;0.70;;;26.00;77.00;;;;;;4986633;28;20183;-69
2022/09/04 13:45:55;;;;;;;2.00;0.90;;;25.80;81.30;;;;;;4993688;28;20410;-69
2022/09/04 13:48:33;;;;;;;10.43;1.63;;;25.60;79.00;;;;;;4993450;28;20454;-69
2022/09/04 13:51:07;;;;;;;1.97;1.00;;;25.30;80.40;;;;;;4995450;28;20800;-69
2022/09/04 13:53:43;;;;;;;2.80;1.00;;;24.90;83.70;;;;;;4994326;28;21010;-69
2022/09/04 13:56:15;;;;;;;2.30;1.03;;;25.00;83.00;;;;;;4996323;28;20425;-69
2022/09/04 13:58:50;;;;;;;2.17;1.17;;;25.00;80.80;;;;;;4995783;28;20453;-69
2022/09/04 14:01:21;;;;;;;4.33;1.10;;;25.10;83.40;;;;;;4997049;28;20417;-70
2022/09/04 14:03:48;;;;;;;2.10;0.90;;;25.40;81.30;;;;;;4996560;28;20423;-70
2022/09/04 14:06:18;;;;;;;2.37;0.90;;;25.50;79.80;;;;;;4989803;28;21128;-69
2022/09/04 14:08:47;;;;;;;1.93;0.83;;;25.60;78.70;;;;;;4994880;28;20426;-69
2022/09/04 14:11:41;;;;;;;1.93;1.07;;;25.50;79.10;;;;;;4993525;28;20418;-70
2022/09/04 14:14:10;;;;;;;1.90;0.70;;;25.80;80.60;;;;;;4990793;28;20466;-69
2022/09/04 14:16:43;;;;;;;1.60;0.70;;;25.70;80.10;;;;;;4994769;28;20414;-69
2022/09/04 14:19:31;;;;;;;2.27;0.90;;;25.80;82.10;;;;;;4993320;28;20509;-69